createdAt,value
2023-04-18T00:00:50.988Z,84.63
2023-04-18T00:01:51.005Z,86.07
2023-04-18T00:02:51.143Z,85.76
2023-04-18T00:03:51.276Z,86.17
2023-04-18T00:04:51.040Z,85.66
2023-04-18T00:05:50.935Z,84.94
2023-04-18T00:06:50.916Z,84.22
2023-04-18T00:07:50.931Z,84.33
2023-04-18T00:08:50.987Z,84.22
2023-04-18T00:09:50.903Z,84.68
2023-04-18T00:10:50.878Z,84.98
2023-04-18T00:11:50.874Z,85.39
2023-04-18T00:12:50.864Z,85.70
2023-04-18T00:13:50.854Z,85.80
2023-04-18T00:14:50.834Z,85.84
2023-04-18T00:15:50.830Z,85.84
2023-04-18T00:16:50.835Z,86.25
2023-04-18T00:17:50.842Z,85.63
2023-04-18T00:18:50.795Z,85.22
2023-04-18T00:19:50.798Z,84.65
2023-04-18T00:20:50.772Z,86.19
2023-04-18T00:21:50.768Z,86.60
2023-04-18T00:22:50.748Z,86.81
2023-04-18T00:23:50.741Z,85.51
2023-04-18T00:24:50.754Z,86.74
2023-04-18T00:25:50.737Z,87.98
2023-04-18T00:26:50.709Z,88.07
2023-04-18T00:27:50.713Z,87.29
2023-04-18T00:28:50.694Z,87.81
2023-04-18T00:29:50.693Z,88.01
2023-04-18T00:30:50.710Z,88.43
2023-04-18T00:31:50.679Z,89.19
2023-04-18T00:32:50.777Z,89.08
2023-04-18T00:33:50.678Z,89.19
2023-04-18T00:34:50.624Z,87.91
2023-04-18T00:35:50.620Z,88.12
2023-04-18T00:36:50.617Z,88.01
2023-04-18T00:37:50.603Z,88.33
2023-04-18T00:38:50.598Z,87.20
2023-04-18T00:39:50.586Z,87.29
2023-04-18T00:40:50.690Z,87.09
2023-04-18T00:41:50.561Z,87.20
2023-04-18T00:42:50.536Z,86.99
2023-04-18T00:43:50.567Z,87.40
2023-04-18T00:44:50.514Z,87.29
2023-04-18T00:45:50.520Z,87.65
2023-04-18T00:46:50.496Z,87.34
2023-04-18T00:47:50.560Z,87.85
2023-04-18T00:48:50.471Z,88.36
2023-04-18T00:49:50.470Z,88.30
2023-04-18T00:50:50.451Z,88.92
2023-04-18T00:51:50.446Z,89.23
2023-04-18T00:52:50.433Z,89.23
2023-04-18T00:53:50.428Z,89.33
2023-04-18T00:54:50.402Z,88.65
2023-04-18T00:55:50.407Z,89.37
2023-04-18T00:56:50.403Z,89.83
2023-04-18T00:57:50.380Z,89.52
2023-04-18T00:58:50.368Z,90.44
2023-04-18T00:59:50.364Z,89.72
2023-04-18T01:00:50.338Z,89.93
2023-04-18T01:01:50.361Z,90.07
2023-04-18T01:02:50.484Z,90.28
2023-04-18T01:03:50.415Z,90.17
2023-04-18T01:04:50.315Z,90.73
2023-04-18T01:05:50.306Z,91.04
2023-04-18T01:06:50.280Z,91.19
2023-04-18T01:07:50.291Z,91.60
2023-04-18T01:08:50.289Z,91.80
2023-04-18T01:09:50.259Z,92.22
2023-04-18T01:10:50.346Z,92.32
2023-04-18T01:11:50.236Z,92.37
2023-04-18T01:12:50.241Z,92.57
2023-04-18T01:13:50.212Z,92.77
2023-04-18T01:14:50.202Z,92.67
2023-04-18T01:15:50.214Z,92.82
2023-04-18T01:16:50.181Z,93.23
2023-04-18T01:17:50.205Z,93.34
2023-04-18T01:18:50.161Z,93.89
2023-04-18T01:19:50.159Z,94.41
2023-04-18T01:20:50.133Z,94.51
2023-04-18T01:21:50.136Z,94.72
2023-04-18T01:22:50.116Z,94.72
2023-04-18T01:23:50.109Z,95.17
2023-04-18T01:24:50.119Z,95.69
2023-04-18T01:25:50.089Z,95.44
2023-04-18T01:26:50.078Z,95.03
2023-04-18T01:27:50.077Z,94.72
2023-04-18T01:28:50.078Z,94.82
2023-04-18T01:29:50.051Z,94.31
2023-04-18T01:30:50.051Z,94.41
2023-04-18T01:31:50.152Z,94.10
2023-04-18T01:32:50.081Z,94.00
2023-04-18T01:33:50.012Z,93.89
2023-04-18T01:34:49.985Z,94.00
2023-04-18T01:35:49.990Z,93.89
2023-04-18T01:36:49.967Z,93.79
2023-04-18T01:37:49.965Z,93.79
2023-04-18T01:38:49.956Z,93.68
2023-04-18T01:39:49.944Z,93.68
2023-04-18T01:40:49.924Z,93.58
2023-04-18T01:41:49.932Z,93.53
2023-04-18T01:42:49.906Z,93.73
2023-04-18T01:43:49.912Z,94.04
2023-04-18T01:44:49.903Z,94.25
2023-04-18T01:45:49.884Z,94.29
2023-04-18T01:46:49.898Z,94.39
2023-04-18T01:47:49.949Z,94.50
2023-04-18T01:48:49.838Z,94.91
2023-04-18T01:49:49.833Z,95.01
2023-04-18T01:50:49.820Z,94.91
2023-04-18T01:51:49.830Z,95.01
2023-04-18T01:52:49.796Z,94.70
2023-04-18T01:53:49.803Z,94.60
2023-04-18T01:54:49.777Z,94.50
2023-04-18T01:55:49.776Z,94.50
2023-04-18T01:56:49.758Z,94.39
2023-04-18T01:57:49.753Z,94.18
2023-04-18T01:58:49.738Z,94.18
2023-04-18T01:59:49.736Z,93.98
2023-04-18T02:00:49.785Z,94.08
2023-04-18T02:01:49.774Z,93.98
2023-04-18T02:02:49.760Z,93.98
2023-04-18T02:03:49.868Z,93.98
2023-04-18T02:04:49.675Z,93.98
2023-04-18T02:05:49.671Z,94.39
2023-04-18T02:06:49.663Z,94.39
2023-04-18T02:07:49.659Z,94.70
2023-04-18T02:08:49.628Z,94.70
2023-04-18T02:09:49.631Z,94.81
2023-04-18T02:10:49.616Z,94.95
2023-04-18T02:11:49.609Z,95.26
2023-04-18T02:12:49.591Z,95.47
2023-04-18T02:13:49.591Z,95.57
2023-04-18T02:14:49.568Z,95.93
2023-04-18T02:15:49.577Z,96.24
2023-04-18T02:16:49.646Z,96.24
2023-04-18T02:17:49.586Z,96.24
2023-04-18T02:18:49.532Z,96.65
2023-04-18T02:19:49.524Z,96.75
2023-04-18T02:20:49.516Z,96.75
2023-04-18T02:21:49.507Z,96.96
2023-04-18T02:22:49.497Z,97.17
2023-04-18T02:23:49.497Z,96.96
2023-04-18T02:26:29.987Z,97.89
2023-04-18T02:27:29.983Z,97.89
2023-04-18T02:28:29.963Z,97.79
2023-04-18T02:29:29.960Z,97.38
2023-04-18T02:30:29.942Z,96.30
2023-04-18T02:31:30.013Z,95.93
2023-04-18T02:32:29.993Z,96.40
2023-04-18T02:33:29.922Z,95.67
2023-04-18T02:34:29.914Z,95.06
2023-04-18T02:35:29.908Z,95.47
2023-04-18T02:36:29.885Z,95.26
2023-04-18T02:37:29.886Z,95.47
2023-04-18T02:38:35.864Z,94.75
2023-04-18T02:39:29.870Z,94.64
2023-04-18T02:40:29.833Z,94.43
2023-04-18T02:41:29.837Z,94.43
2023-04-18T02:42:29.814Z,94.28
2023-04-18T02:43:29.822Z,94.58
2023-04-18T02:44:29.798Z,94.58
2023-04-18T02:45:29.909Z,94.37
2023-04-18T02:46:29.818Z,94.48
2023-04-18T02:47:31.736Z,95.00
2023-04-18T02:48:29.923Z,94.68
2023-04-18T02:49:35.768Z,94.17
2023-04-18T02:50:29.739Z,94.68
2023-04-18T02:51:29.733Z,94.48
2023-04-18T02:52:29.914Z,94.37
2023-04-18T02:53:29.736Z,94.37
2023-04-18T02:54:29.695Z,94.37
2023-04-18T02:55:29.684Z,94.48
2023-04-18T02:56:35.687Z,94.58
2023-04-18T02:57:29.668Z,95.04
2023-04-18T02:58:29.651Z,95.25
2023-04-18T02:59:29.653Z,95.45
2023-04-18T03:00:29.639Z,95.70
2023-04-18T03:01:29.698Z,96.12
2023-04-18T03:02:29.702Z,96.53
2023-04-18T03:03:35.765Z,96.85
2023-04-18T03:04:29.822Z,96.99
2023-04-18T03:05:29.791Z,97.51
2023-04-18T03:06:29.571Z,97.72
2023-04-18T03:07:29.558Z,98.03
2023-04-18T03:08:29.556Z,98.23
2023-04-18T03:09:29.536Z,98.54
2023-04-18T03:10:29.557Z,98.65
2023-04-18T03:11:29.720Z,98.75
2023-04-18T03:12:29.516Z,98.75
2023-04-18T03:13:29.495Z,98.85
2023-04-18T03:14:29.496Z,99.06
2023-04-18T03:15:29.483Z,98.85
2023-04-18T03:16:29.564Z,98.75
2023-04-18T03:17:29.475Z,98.75
2023-04-18T03:18:29.456Z,98.75
2023-04-18T03:19:29.455Z,98.75
2023-04-18T03:20:29.436Z,98.75
2023-04-18T03:21:29.413Z,98.54
2023-04-18T03:22:29.414Z,98.33
2023-04-18T03:23:29.401Z,98.54
2023-04-18T03:24:29.398Z,98.75
2023-04-18T03:25:29.392Z,98.65
2023-04-18T03:26:29.378Z,98.54
2023-04-18T03:27:29.364Z,98.54
2023-04-18T03:28:29.356Z,98.33
2023-04-18T03:29:29.330Z,98.18
2023-04-18T03:30:29.330Z,98.38
2023-04-18T03:31:29.355Z,98.74
2023-04-18T03:32:35.418Z,99.32
2023-04-18T03:33:29.325Z,99.11
2023-04-18T03:34:29.295Z,99.15
2023-04-18T03:35:29.313Z,99.46
2023-04-18T03:36:29.267Z,99.67
2023-04-18T03:37:29.263Z,99.46
2023-04-18T03:38:29.267Z,99.51
2023-04-18T03:39:29.440Z,99.87
2023-04-18T03:40:29.436Z,99.99
2023-04-18T03:41:29.208Z,99.99
2023-04-18T03:42:29.215Z,99.99
2023-04-18T03:43:29.200Z,99.99
2023-04-18T03:44:29.190Z,99.99
2023-04-18T03:45:29.179Z,99.99
2023-04-18T03:46:29.197Z,99.99
2023-04-18T03:47:29.178Z,99.99
2023-04-18T03:48:29.151Z,99.99
2023-04-18T03:49:29.129Z,99.99
2023-04-18T03:50:29.127Z,99.99
2023-04-18T03:51:29.128Z,99.99
2023-04-18T03:52:29.929Z,99.99
2023-04-18T03:53:29.295Z,99.99
2023-04-18T03:54:29.089Z,99.99
2023-04-18T03:55:29.079Z,99.99
2023-04-18T03:56:29.072Z,99.99
2023-04-18T03:57:29.053Z,99.99
2023-04-18T03:58:29.051Z,99.99
2023-04-18T03:59:29.038Z,99.99
2023-04-18T04:00:29.031Z,99.99
2023-04-18T04:01:29.021Z,99.99
2023-04-18T04:02:35.194Z,99.99
2023-04-18T04:03:29.147Z,99.99
2023-04-18T04:04:29.019Z,99.99
2023-04-18T04:05:28.974Z,99.99
2023-04-18T04:06:28.913Z,99.99
2023-04-18T04:07:28.933Z,99.99
2023-04-18T04:08:28.900Z,99.99
2023-04-18T04:09:28.884Z,99.99
2023-04-18T04:10:29.085Z,99.99
2023-04-18T04:11:28.873Z,99.99
2023-04-18T04:12:28.865Z,99.99
2023-04-18T04:13:28.895Z,99.99
2023-04-18T04:14:28.851Z,99.99
2023-04-18T04:15:28.826Z,99.99
2023-04-18T04:16:29.042Z,99.99
2023-04-18T04:17:28.830Z,99.99
2023-04-18T04:18:28.804Z,99.99
2023-04-18T04:19:28.978Z,99.99
2023-04-18T04:20:28.995Z,99.99
2023-04-18T04:21:28.768Z,99.99
2023-04-18T04:22:28.764Z,99.99
2023-04-18T04:23:28.762Z,99.99
2023-04-18T04:24:28.736Z,99.99
2023-04-18T04:25:28.808Z,99.99
2023-04-18T04:26:28.726Z,99.99
2023-04-18T04:27:28.728Z,99.99
2023-04-18T04:28:28.722Z,99.99
2023-04-18T04:29:34.694Z,99.99
2023-04-18T04:30:28.695Z,99.99
2023-04-18T04:31:28.900Z,99.99
2023-04-18T04:32:28.671Z,99.99
2023-04-18T04:33:34.649Z,99.99
2023-04-18T04:34:28.632Z,99.99
2023-04-18T04:35:28.619Z,99.99
2023-04-18T04:36:28.613Z,99.99
2023-04-18T04:37:28.607Z,99.99
2023-04-18T04:38:28.597Z,99.99
2023-04-18T04:39:28.610Z,99.99
2023-04-18T04:40:28.570Z,99.99
2023-04-18T04:41:28.552Z,99.99
2023-04-18T04:42:28.551Z,99.99
2023-04-18T04:43:28.553Z,99.99
2023-04-18T04:44:28.530Z,99.99
2023-04-18T04:45:28.538Z,99.99
2023-04-18T04:46:28.520Z,99.99
2023-04-18T04:47:28.544Z,99.99
2023-04-18T04:48:28.486Z,99.99
2023-04-18T04:49:28.471Z,99.99
2023-04-18T04:50:28.465Z,99.99
2023-04-18T04:51:28.448Z,99.99
2023-04-18T04:52:28.451Z,99.99
2023-04-18T04:53:28.429Z,99.99
2023-04-18T04:54:28.426Z,99.99
2023-04-18T04:55:28.434Z,99.99
2023-04-18T04:56:28.419Z,99.99
2023-04-18T04:57:28.386Z,99.99
2023-04-18T04:58:28.386Z,99.99
2023-04-18T04:59:28.445Z,99.38
2023-04-18T05:00:28.371Z,99.28
2023-04-18T05:01:28.604Z,98.97
2023-04-18T05:02:28.662Z,98.41
2023-04-18T05:03:28.420Z,98.10
2023-04-18T05:04:28.439Z,98.10
2023-04-18T05:05:28.299Z,97.94
2023-04-18T05:06:28.296Z,98.10
2023-04-18T05:07:28.296Z,97.48
2023-04-18T05:08:34.298Z,97.07
2023-04-18T05:09:28.261Z,96.82
2023-04-18T05:10:34.476Z,96.40
2023-04-18T05:11:28.245Z,96.40
2023-04-18T05:12:28.260Z,96.25
2023-04-18T05:13:28.225Z,96.05
2023-04-18T05:14:28.219Z,95.90
2023-04-18T05:15:28.206Z,95.94
2023-04-18T05:16:28.225Z,95.28
2023-04-18T05:17:28.225Z,95.38
2023-04-18T05:18:28.183Z,95.07
2023-04-18T05:19:28.156Z,95.07
2023-04-18T05:20:28.159Z,95.17
2023-04-18T05:21:28.141Z,94.35
2023-04-18T05:22:28.146Z,94.04
2023-04-18T05:23:28.133Z,94.00
2023-04-18T05:24:28.120Z,93.58
2023-04-18T05:25:28.099Z,92.20
2023-04-18T05:26:28.122Z,92.30
2023-04-18T05:27:28.079Z,92.57
2023-04-18T05:28:28.082Z,91.95
2023-04-18T05:29:28.059Z,92.01
2023-04-18T05:30:34.082Z,90.98
2023-04-18T05:31:28.111Z,89.70
2023-04-18T05:32:28.043Z,89.70
2023-04-18T05:33:28.013Z,89.05
2023-04-18T05:34:34.022Z,87.28
2023-04-18T05:35:28.015Z,86.06
2023-04-18T05:36:28.010Z,85.10
2023-04-18T05:37:27.976Z,81.60
2023-04-18T05:38:27.977Z,80.15
2023-04-18T05:39:33.964Z,78.75
2023-04-18T05:40:27.952Z,76.53
2023-04-18T05:41:28.036Z,75.78
2023-04-18T05:42:28.181Z,75.17
2023-04-18T05:43:27.917Z,75.64
2023-04-18T05:44:27.926Z,73.60
2023-04-18T05:45:27.894Z,73.94
2023-04-18T05:46:28.045Z,76.05
2023-04-18T05:47:27.936Z,76.39
2023-04-18T05:48:27.875Z,73.19
2023-04-18T05:49:27.853Z,70.23
2023-04-18T05:50:27.856Z,70.51
2023-04-18T05:51:27.833Z,72.85
2023-04-18T05:52:27.848Z,72.41
2023-04-18T05:53:27.820Z,72.21
2023-04-18T05:54:27.808Z,69.36
2023-04-18T05:55:27.798Z,72.03
2023-04-18T05:56:27.826Z,71.09
2023-04-18T05:57:27.773Z,67.43
2023-04-18T05:58:33.825Z,68.35
2023-04-18T05:59:27.745Z,67.74
2023-04-18T06:00:27.762Z,64.44
2023-04-18T06:01:27.729Z,65.11
2023-04-18T06:02:27.859Z,61.47
2023-04-18T06:03:27.873Z,63.64
2023-04-18T06:04:27.862Z,61.82
2023-04-18T06:05:28.070Z,61.38
2023-04-18T06:06:27.792Z,58.92
2023-04-18T06:07:27.665Z,59.33
2023-04-18T06:08:27.668Z,59.81
2023-04-18T06:09:27.639Z,57.61
2023-04-18T06:10:27.648Z,59.91
2023-04-18T06:11:27.625Z,58.27
2023-04-18T06:12:27.620Z,57.23
2023-04-18T06:13:27.615Z,57.36
2023-04-18T06:14:27.621Z,57.53
2023-04-18T06:15:27.586Z,58.08
2023-04-18T06:16:27.639Z,55.09
2023-04-18T06:17:27.583Z,58.31
2023-04-18T06:18:27.563Z,57.48
2023-04-18T06:19:27.541Z,55.26
2023-04-18T06:20:27.545Z,54.45
2023-04-18T06:21:33.536Z,56.57
2023-04-18T06:22:27.524Z,58.06
2023-04-18T06:23:27.499Z,55.79
2023-04-18T06:24:27.974Z,55.48
2023-04-18T06:25:27.483Z,53.11
2023-04-18T06:26:27.484Z,56.47
2023-04-18T06:27:31.373Z,55.24
2023-04-18T06:28:27.477Z,61.74
2023-04-18T06:29:27.435Z,62.57
2023-04-18T06:30:27.473Z,63.37
2023-04-18T06:31:27.446Z,66.88
2023-04-18T06:32:27.439Z,66.37
2023-04-18T06:33:27.391Z,68.20
2023-04-18T06:34:27.387Z,69.45
2023-04-18T06:35:27.380Z,70.94
2023-04-18T06:36:27.368Z,72.71
2023-04-18T06:37:27.349Z,73.33
2023-04-18T06:38:27.363Z,71.93
2023-04-18T06:39:27.338Z,74.79
2023-04-18T06:40:27.329Z,72.95
2023-04-18T06:41:27.318Z,75.06
2023-04-18T06:42:27.326Z,73.87
2023-04-18T06:43:27.283Z,71.32
2023-04-18T06:44:27.293Z,69.06
2023-04-18T06:45:27.293Z,65.79
2023-04-18T06:46:27.365Z,62.48
2023-04-18T06:47:27.256Z,58.83
2023-04-18T06:48:27.245Z,56.98
2023-04-18T06:49:27.220Z,56.00
2023-04-18T06:50:27.226Z,51.73
2023-04-18T06:51:27.202Z,52.11
2023-04-18T06:52:27.198Z,53.04
2023-04-18T06:53:27.181Z,53.19
2023-04-18T06:54:27.195Z,59.75
2023-04-18T06:55:27.161Z,61.51
2023-04-18T06:56:27.160Z,62.95
2023-04-18T06:57:27.139Z,66.63
2023-04-18T06:58:27.147Z,65.78
2023-04-18T06:59:27.115Z,64.82
2023-04-18T07:00:27.114Z,66.18
2023-04-18T07:01:27.154Z,67.22
2023-04-18T07:02:27.336Z,69.49
2023-04-18T07:03:27.120Z,69.76
2023-04-18T07:04:27.104Z,67.63
2023-04-18T07:05:27.060Z,71.09
2023-04-18T07:06:27.049Z,70.44
2023-04-18T07:07:27.048Z,68.68
2023-04-18T07:08:27.049Z,67.94
2023-04-18T07:09:27.014Z,68.21
2023-04-18T07:10:27.014Z,69.81
2023-04-18T07:11:26.991Z,68.79
2023-04-18T07:12:26.986Z,65.95
2023-04-18T07:13:26.976Z,67.67
2023-04-18T07:14:26.981Z,63.78
2023-04-18T07:15:26.949Z,68.42
2023-04-18T07:16:26.975Z,71.22
2023-04-18T07:17:26.950Z,70.62
2023-04-18T07:18:37.498Z,67.27
2023-04-18T07:19:27.951Z,66.76
2023-04-18T07:20:26.895Z,65.92
2023-04-18T07:21:26.885Z,66.40
2023-04-18T07:22:26.880Z,65.14
2023-04-18T07:23:26.871Z,66.03
2023-04-18T07:24:26.856Z,65.36
2023-04-18T07:25:26.854Z,61.27
2023-04-18T07:26:26.842Z,60.46
2023-04-18T07:27:26.830Z,61.08
2023-04-18T07:28:26.817Z,60.73
2023-04-18T07:29:26.803Z,56.06
2023-04-18T07:30:26.786Z,56.95
2023-04-18T07:31:26.894Z,58.45
2023-04-18T07:32:26.776Z,58.11
2023-04-18T07:33:26.763Z,56.95
2023-04-18T07:34:26.958Z,58.50
2023-04-18T07:35:26.740Z,60.63
2023-04-18T07:36:26.727Z,57.68
2023-04-18T07:37:26.944Z,61.07
2023-04-18T07:38:26.714Z,60.66
2023-04-18T07:39:26.705Z,59.84
2023-04-18T07:40:26.698Z,58.48
2023-04-18T07:41:26.679Z,56.86
2023-04-18T07:42:26.694Z,56.64
2023-04-18T07:43:26.671Z,58.38
2023-04-18T07:44:26.640Z,59.04
2023-04-18T07:45:26.641Z,51.96
2023-04-18T07:46:26.712Z,52.11
2023-04-18T07:47:27.608Z,52.84
2023-04-18T07:48:26.610Z,49.67
2023-04-18T07:49:26.604Z,50.73
2023-04-18T07:50:26.609Z,49.24
2023-04-18T07:51:26.574Z,49.39
2023-04-18T07:52:26.559Z,48.10
2023-04-18T07:53:26.566Z,48.18
2023-04-18T07:54:26.537Z,47.50
2023-04-18T07:55:26.555Z,48.82
2023-04-18T07:56:26.558Z,47.14
2023-04-18T07:57:26.546Z,47.77
2023-04-18T07:58:26.503Z,48.84
2023-04-18T07:59:26.496Z,47.24
2023-04-18T08:01:05.451Z,46.72
2023-04-18T08:02:05.272Z,46.69
2023-04-18T08:03:05.417Z,50.38
2023-04-18T08:04:05.329Z,51.05
2023-04-18T08:05:05.332Z,55.38
2023-04-18T08:06:05.305Z,54.68
2023-04-18T08:07:05.183Z,52.36
2023-04-18T08:08:11.186Z,52.71
2023-04-18T08:09:05.249Z,51.91
2023-04-18T08:10:05.150Z,49.13
2023-04-18T08:11:05.331Z,49.08
2023-04-18T08:12:05.138Z,49.13
2023-04-18T08:13:05.316Z,50.13
2023-04-18T08:14:05.108Z,49.65
2023-04-18T08:15:05.086Z,51.66
2023-04-18T08:16:05.117Z,50.53
2023-04-18T08:17:05.074Z,49.51
2023-04-18T08:18:05.160Z,49.28
2023-04-18T08:19:05.046Z,51.78
2023-04-18T08:20:11.048Z,53.39
2023-04-18T08:21:11.263Z,53.49
2023-04-18T08:22:05.024Z,53.92
2023-04-18T08:23:07.949Z,52.49
2023-04-18T08:24:05.011Z,51.63
2023-04-18T08:25:05.864Z,53.11
2023-04-18T08:26:05.077Z,55.44
2023-04-18T08:27:04.986Z,61.28
2023-04-18T08:28:04.954Z,60.99
2023-04-18T08:29:04.946Z,63.32
2023-04-18T08:30:04.940Z,62.22
2023-04-18T08:31:05.126Z,64.42
2023-04-18T08:32:04.937Z,66.45
2023-04-18T08:33:04.954Z,65.74
2023-04-18T08:34:05.287Z,63.56
2023-04-18T08:35:04.880Z,60.40
2023-04-18T08:36:04.877Z,57.88
2023-04-18T08:37:04.943Z,57.95
2023-04-18T08:38:04.854Z,57.98
2023-04-18T08:39:04.847Z,58.94
2023-04-18T08:40:04.832Z,56.82
2023-04-18T08:41:04.814Z,55.95
2023-04-18T08:42:04.827Z,52.81
2023-04-18T08:43:04.844Z,52.49
2023-04-18T08:44:04.785Z,49.71
2023-04-18T08:45:04.775Z,49.63
2023-04-18T08:46:04.797Z,49.24
2023-04-18T08:47:04.745Z,48.48
2023-04-18T08:48:04.801Z,47.47
2023-04-18T08:49:04.743Z,46.25
2023-04-18T08:50:04.730Z,49.00
2023-04-18T08:51:04.715Z,45.52
2023-04-18T08:52:04.704Z,44.94
2023-04-18T08:53:04.731Z,48.30
2023-04-18T08:54:04.740Z,47.60
2023-04-18T08:55:04.661Z,46.94
2023-04-18T08:56:04.668Z,46.94
2023-04-18T08:57:04.640Z,47.07
2023-04-18T08:58:04.642Z,46.81
2023-04-18T08:59:04.629Z,50.62
2023-04-18T09:00:39.318Z,48.16
2023-04-18T09:01:39.409Z,46.40
2023-04-18T09:02:39.354Z,43.71
2023-04-18T09:03:39.411Z,45.88
2023-04-18T09:04:39.433Z,44.81
2023-04-18T09:05:39.260Z,45.91
2023-04-18T09:06:39.246Z,44.11
2023-04-18T09:07:39.242Z,44.79
2023-04-18T09:08:39.266Z,44.60
2023-04-18T09:09:39.216Z,45.70
2023-04-18T09:10:39.204Z,49.21
2023-04-18T09:11:39.199Z,51.29
2023-04-18T09:12:39.178Z,51.89
2023-04-18T09:13:39.411Z,48.41
2023-04-18T09:14:39.153Z,50.43
2023-04-18T09:15:39.153Z,52.99
2023-04-18T09:16:39.160Z,50.31
2023-04-18T09:17:39.136Z,51.69
2023-04-18T09:18:39.117Z,53.97
2023-04-18T09:19:39.122Z,49.38
2023-04-18T09:20:39.100Z,49.21
2023-04-18T09:21:39.087Z,50.01
2023-04-18T09:22:40.002Z,51.36
2023-04-18T09:23:39.074Z,52.89
2023-04-18T09:24:45.247Z,46.80
2023-04-18T09:25:42.008Z,47.61
2023-04-18T09:26:39.034Z,44.71
2023-04-18T09:27:39.028Z,45.90
2023-04-18T09:28:39.004Z,46.51
2023-04-18T09:29:39.009Z,50.35
2023-04-18T09:30:39.012Z,44.28
2023-04-18T09:31:38.997Z,48.94
2023-04-18T09:32:38.994Z,48.93
2023-04-18T09:33:38.965Z,49.15
2023-04-18T09:34:38.957Z,51.89
2023-04-18T09:35:38.950Z,47.08
2023-04-18T09:36:38.936Z,43.84
2023-04-18T09:37:38.925Z,44.87
2023-04-18T09:38:38.908Z,45.00
2023-04-18T09:39:38.899Z,46.33
2023-04-18T09:40:38.942Z,45.57
2023-04-18T09:41:39.080Z,44.24
2023-04-18T09:42:38.870Z,49.95
2023-04-18T09:43:38.849Z,46.43
2023-04-18T09:44:38.846Z,46.99
2023-04-18T09:45:38.838Z,47.23
2023-04-18T09:46:38.864Z,49.66
2023-04-18T09:47:38.830Z,52.94
2023-04-18T09:48:38.807Z,55.66
2023-04-18T09:49:38.790Z,59.03
2023-04-18T09:50:38.794Z,57.03
2023-04-18T09:51:38.765Z,59.38
2023-04-18T09:52:38.771Z,60.82
2023-04-18T09:53:40.811Z,60.92
2023-04-18T09:54:38.732Z,63.31
2023-04-18T09:55:38.734Z,59.48
2023-04-18T09:56:38.745Z,61.27
2023-04-18T09:57:38.711Z,63.39
2023-04-18T09:58:38.700Z,60.13
2023-04-18T09:59:38.899Z,59.52
2023-04-18T10:00:38.673Z,60.00
2023-04-18T10:01:38.709Z,62.42
2023-04-18T10:02:38.761Z,59.16
2023-04-18T10:03:38.889Z,62.56
2023-04-18T10:04:38.683Z,58.43
2023-04-18T10:05:38.712Z,57.20
2023-04-18T10:06:44.629Z,56.87
2023-04-18T10:07:38.611Z,61.11
2023-04-18T10:08:38.593Z,56.35
2023-04-18T10:09:38.588Z,56.10
2023-04-18T10:10:39.163Z,48.63
2023-04-18T10:11:38.566Z,49.73
2023-04-18T10:12:38.583Z,44.50
2023-04-18T10:13:38.539Z,45.06
2023-04-18T10:14:38.531Z,42.99
2023-04-18T10:15:38.573Z,46.28
2023-04-18T10:16:38.529Z,45.57
2023-04-18T10:17:38.747Z,48.16
2023-04-18T10:18:38.667Z,45.75
2023-04-18T10:19:38.503Z,46.36
2023-04-18T10:20:38.484Z,48.71
2023-04-18T10:21:38.494Z,45.80
2023-04-18T10:22:38.436Z,45.90
2023-04-18T10:23:38.658Z,43.64
2023-04-18T10:24:38.417Z,46.22
2023-04-18T10:25:38.424Z,45.13
2023-04-18T10:26:38.398Z,45.45
2023-04-18T10:27:38.402Z,44.60
2023-04-18T10:28:39.493Z,48.44
2023-04-18T10:29:38.375Z,48.24
2023-04-18T10:30:38.361Z,48.49
2023-04-18T10:31:38.440Z,49.62
2023-04-18T10:32:38.354Z,48.03
2023-04-18T10:33:41.062Z,47.58
2023-04-18T10:34:38.323Z,45.52
2023-04-18T10:35:40.403Z,47.45
2023-04-18T10:36:38.299Z,46.66
2023-04-18T10:37:38.294Z,48.94
2023-04-18T10:39:13.105Z,51.74
2023-04-18T10:40:19.086Z,47.04
2023-04-18T10:41:13.059Z,45.68
2023-04-18T10:42:13.057Z,44.84
2023-04-18T10:43:13.243Z,43.21
2023-04-18T10:44:13.516Z,43.49
2023-04-18T10:45:13.229Z,45.02
2023-04-18T10:46:31.114Z,44.60
2023-04-18T10:47:13.253Z,42.44
2023-04-18T10:48:13.249Z,45.26
2023-04-18T10:49:13.402Z,43.89
2023-04-18T10:50:13.003Z,48.66
2023-04-18T10:51:13.189Z,43.51
2023-04-18T10:52:13.506Z,42.44
2023-04-18T10:53:12.944Z,43.46
2023-04-18T10:54:18.954Z,46.52
2023-04-18T10:55:12.927Z,45.81
2023-04-18T10:56:12.949Z,49.67
2023-04-18T10:57:12.908Z,48.13
2023-04-18T10:58:15.110Z,46.91
2023-04-18T10:59:12.884Z,47.01
2023-04-18T11:00:13.480Z,47.10
2023-04-18T11:01:18.903Z,48.74
2023-04-18T11:02:12.890Z,52.61
2023-04-18T11:03:13.044Z,51.04
2023-04-18T11:04:13.312Z,52.39
2023-04-18T11:05:12.829Z,53.07
2023-04-18T11:06:12.819Z,54.41
2023-04-18T11:07:47.511Z,48.87
2023-04-18T11:08:47.495Z,50.14
2023-04-18T11:09:47.479Z,54.52
2023-04-18T11:10:53.495Z,54.85
2023-04-18T11:12:30.175Z,55.35
2023-04-18T11:13:30.161Z,58.95
2023-04-18T11:14:30.139Z,57.87
2023-04-18T11:15:31.093Z,62.30
2023-04-18T11:16:30.199Z,58.17
2023-04-18T11:17:36.202Z,62.44
2023-04-18T11:18:30.113Z,59.00
2023-04-18T11:19:30.101Z,57.16
2023-04-18T11:20:30.082Z,54.87
2023-04-18T11:21:30.886Z,59.13
2023-04-18T11:22:30.065Z,57.84
2023-04-18T11:23:30.076Z,59.18
2023-04-18T11:24:30.052Z,59.21
2023-04-18T11:25:30.047Z,60.04
2023-04-18T11:26:30.027Z,62.46
2023-04-18T11:27:30.055Z,59.27
2023-04-18T11:28:30.014Z,62.82
2023-04-18T11:29:30.003Z,64.33
2023-04-18T11:30:29.988Z,62.00
2023-04-18T11:31:30.152Z,63.58
2023-04-18T11:32:30.122Z,65.56
2023-04-18T11:33:29.965Z,68.12
2023-04-18T11:34:29.965Z,67.24
2023-04-18T11:35:29.949Z,66.87
2023-04-18T11:36:29.930Z,69.23
2023-04-18T11:37:29.921Z,68.25
2023-04-18T11:38:29.904Z,69.90
2023-04-18T11:39:29.909Z,70.14
2023-04-18T11:40:29.881Z,70.89
2023-04-18T11:41:29.880Z,73.12
2023-04-18T11:42:31.923Z,71.19
2023-04-18T11:43:29.848Z,72.10
2023-04-18T11:44:29.851Z,73.29
2023-04-18T11:45:30.043Z,71.39
2023-04-18T11:46:36.135Z,72.41
2023-04-18T11:47:29.837Z,70.48
2023-04-18T11:48:29.804Z,71.90
2023-04-18T11:49:29.786Z,70.45
2023-04-18T11:50:29.790Z,69.67
2023-04-18T11:51:29.779Z,70.68
2023-04-18T11:52:29.763Z,70.92
2023-04-18T11:53:29.747Z,70.72
2023-04-18T11:54:29.742Z,71.29
2023-04-18T11:55:29.728Z,70.58
2023-04-18T11:56:29.739Z,71.16
2023-04-18T11:57:29.722Z,70.04
2023-04-18T11:58:29.707Z,70.85
2023-04-18T11:59:29.889Z,69.67
2023-04-18T12:00:29.683Z,69.23
2023-04-18T12:01:29.677Z,69.81
2023-04-18T12:02:29.838Z,67.27
2023-04-18T12:03:30.002Z,68.12
2023-04-18T12:04:35.976Z,66.71
2023-04-18T12:05:29.954Z,66.88
2023-04-18T12:06:29.735Z,67.55
2023-04-18T12:07:29.605Z,67.49
2023-04-18T12:08:29.592Z,64.73
2023-04-18T12:09:35.585Z,64.16
2023-04-18T12:10:29.786Z,65.27
2023-04-18T12:11:29.556Z,64.39
2023-04-18T12:12:29.552Z,66.71
2023-04-18T12:13:31.614Z,66.44
2023-04-18T12:14:29.517Z,63.74
2023-04-18T12:15:29.525Z,66.50
2023-04-18T12:16:29.619Z,66.43
2023-04-18T12:17:29.515Z,66.43
2023-04-18T12:18:29.562Z,67.34
2023-04-18T12:19:29.478Z,67.24
2023-04-18T12:20:29.461Z,67.62
2023-04-18T12:21:29.474Z,65.39
2023-04-18T12:22:29.445Z,67.48
2023-04-18T12:23:29.443Z,66.07
2023-04-18T12:24:29.436Z,67.14
2023-04-18T12:25:29.418Z,66.43
2023-04-18T12:26:29.398Z,68.12
2023-04-18T12:27:29.399Z,66.71
2023-04-18T12:28:29.386Z,66.37
2023-04-18T12:29:29.371Z,65.69
2023-04-18T12:30:29.377Z,67.82
2023-04-18T12:31:29.374Z,68.86
2023-04-18T12:32:29.363Z,67.85
2023-04-18T12:33:29.333Z,69.47
2023-04-18T12:34:29.378Z,68.09
2023-04-18T12:35:29.317Z,69.43
2023-04-18T12:36:29.495Z,70.25
2023-04-18T12:37:29.289Z,69.23
2023-04-18T12:38:29.304Z,70.25
2023-04-18T12:39:29.270Z,69.06
2023-04-18T12:40:35.267Z,68.56
2023-04-18T12:41:29.450Z,68.76
2023-04-18T12:42:35.245Z,69.37
2023-04-18T12:43:29.271Z,70.65
2023-04-18T12:44:29.274Z,70.31
2023-04-18T12:45:29.220Z,69.50
2023-04-18T12:46:29.207Z,68.26
2023-04-18T12:47:29.212Z,67.71
2023-04-18T12:48:29.172Z,68.53
2023-04-18T12:49:29.172Z,67.82
2023-04-18T12:50:29.187Z,66.03
2023-04-18T12:51:29.165Z,67.65
2023-04-18T12:52:29.124Z,66.43
2023-04-18T12:53:29.359Z,66.13
2023-04-18T12:54:36.745Z,68.26
2023-04-18T12:55:29.124Z,68.35
2023-04-18T12:56:29.085Z,68.86
2023-04-18T12:57:31.576Z,67.44